createdAt,value
2023-07-23T00:02:51.060Z,100.00
2023-07-23T00:05:52.684Z,100.00
2023-07-23T00:08:54.242Z,100.00
2023-07-23T00:11:55.824Z,100.00
2023-07-23T00:14:57.537Z,100.00
2023-07-23T00:18:00.641Z,100.00
2023-07-23T00:21:02.260Z,100.00
2023-07-23T00:24:04.684Z,100.00
2023-07-23T00:27:06.392Z,100.00
2023-07-23T00:30:08.627Z,100.00
2023-07-23T00:33:11.764Z,100.00
2023-07-23T00:36:13.495Z,100.00
2023-07-23T00:39:15.093Z,100.00
2023-07-23T00:42:16.916Z,100.00
2023-07-23T00:45:18.871Z,100.00
2023-07-23T00:48:22.073Z,100.00
2023-07-23T00:51:27.151Z,100.00
2023-07-23T00:54:32.775Z,100.00
2023-07-23T00:57:34.462Z,100.00
2023-07-23T01:00:36.332Z,100.00
2023-07-23T01:03:39.280Z,100.00
2023-07-23T01:06:41.973Z,100.00
2023-07-23T01:09:44.277Z,100.00
2023-07-23T01:12:46.152Z,100.00
2023-07-23T01:15:48.104Z,100.00
2023-07-23T01:18:51.897Z,100.00
2023-07-23T01:21:56.863Z,100.00
2023-07-23T01:24:58.501Z,100.00
2023-07-23T01:28:00.082Z,100.00
2023-07-23T01:31:01.948Z,100.00
2023-07-23T01:34:06.004Z,100.00
2023-07-23T01:37:10.036Z,100.00
2023-07-23T01:40:15.185Z,100.00
2023-07-23T01:43:17.699Z,100.00
2023-07-23T01:46:19.343Z,100.00
2023-07-23T01:49:20.975Z,100.00
2023-07-23T01:52:24.138Z,100.00
2023-07-23T01:55:32.895Z,100.00
2023-07-23T01:58:34.715Z,100.00
2023-07-23T02:01:36.388Z,100.00
2023-07-23T02:04:38.014Z,100.00
2023-07-23T02:07:44.154Z,100.00
2023-07-23T02:10:45.915Z,100.00
2023-07-23T02:13:47.510Z,100.00
2023-07-23T02:16:49.165Z,100.00
2023-07-23T02:19:50.967Z,100.00
2023-07-23T02:22:54.049Z,100.00
2023-07-23T02:25:55.878Z,100.00
2023-07-23T02:28:57.557Z,100.00
2023-07-23T02:31:59.666Z,100.00
2023-07-23T02:35:01.338Z,100.00
2023-07-23T02:38:04.313Z,100.00
2023-07-23T02:41:09.873Z,100.00
2023-07-23T02:44:11.467Z,100.00
2023-07-23T02:47:13.129Z,100.00
2023-07-23T02:50:14.744Z,100.00
2023-07-23T02:53:17.886Z,100.00
2023-07-23T02:56:22.443Z,100.00
2023-07-23T02:59:25.401Z,100.00
2023-07-23T03:02:27.079Z,100.00
2023-07-23T03:05:28.727Z,100.00
2023-07-23T03:08:32.131Z,100.00
2023-07-23T03:11:37.937Z,100.00
2023-07-23T03:14:39.526Z,100.00
2023-07-23T03:17:41.212Z,100.00
2023-07-23T03:20:43.497Z,100.00
2023-07-23T03:23:50.219Z,100.00
2023-07-23T03:26:55.983Z,100.00
2023-07-23T03:29:57.888Z,100.00
2023-07-23T03:33:00.944Z,100.00
2023-07-23T03:36:02.580Z,100.00
2023-07-23T03:39:09.001Z,100.00
2023-07-23T03:42:14.843Z,100.00
2023-07-23T03:45:16.365Z,100.00
2023-07-23T03:48:18.061Z,100.00
2023-07-23T03:51:20.523Z,100.00
2023-07-23T03:54:23.614Z,100.00
2023-07-23T03:57:28.435Z,100.00
2023-07-23T04:00:29.998Z,100.00
2023-07-23T04:03:31.612Z,100.00
2023-07-23T04:06:33.202Z,100.00
2023-07-23T04:09:36.421Z,100.00
2023-07-23T04:12:41.958Z,100.00
2023-07-23T04:15:43.629Z,100.00
2023-07-23T04:18:45.992Z,100.00
2023-07-23T04:21:47.795Z,100.00
2023-07-23T04:24:54.201Z,100.00
2023-07-23T04:27:56.119Z,100.00
2023-07-23T04:30:58.388Z,100.00
2023-07-23T04:34:00.031Z,100.00
2023-07-23T04:37:01.630Z,100.00
2023-07-23T04:40:09.504Z,100.00
2023-07-23T04:43:11.075Z,100.00
2023-07-23T04:46:13.305Z,100.00
2023-07-23T04:49:14.881Z,100.00
2023-07-23T04:52:16.419Z,100.00
2023-07-23T04:55:22.916Z,100.00
2023-07-23T04:58:28.065Z,100.00
2023-07-23T05:01:29.844Z,100.00
2023-07-23T05:04:31.772Z,100.00
2023-07-23T05:07:34.575Z,100.00
2023-07-23T05:10:37.642Z,100.00
2023-07-23T05:13:43.163Z,100.00
2023-07-23T05:16:44.704Z,100.00
2023-07-23T05:19:46.409Z,100.00
2023-07-23T05:22:48.030Z,100.00
2023-07-23T05:25:51.000Z,100.00
2023-07-23T05:28:55.975Z,100.00
2023-07-23T05:31:57.642Z,100.00
2023-07-23T05:34:59.664Z,100.00
2023-07-23T05:38:01.260Z,100.00
2023-07-23T05:41:04.253Z,100.00
2023-07-23T05:44:10.229Z,100.00
2023-07-23T05:47:12.146Z,100.00
2023-07-23T05:50:13.744Z,100.00
2023-07-23T05:53:15.658Z,100.00
2023-07-23T05:56:18.557Z,100.00
2023-07-23T05:59:23.962Z,100.00
2023-07-23T06:02:25.514Z,100.00
2023-07-23T06:05:27.195Z,100.00
2023-07-23T06:08:29.156Z,100.00
2023-07-23T06:11:41.532Z,100.00
2023-07-23T06:14:43.202Z,100.00
2023-07-23T06:17:44.971Z,100.00
2023-07-23T06:20:46.654Z,100.00
2023-07-23T06:23:48.204Z,100.00
2023-07-23T06:26:57.560Z,100.00
2023-07-23T06:29:59.252Z,100.00
2023-07-23T06:33:00.972Z,100.00
2023-07-23T06:36:03.623Z,100.00
2023-07-23T06:39:05.192Z,100.00
2023-07-23T06:42:12.689Z,100.00
2023-07-23T06:45:14.272Z,100.00
2023-07-23T06:48:18.025Z,100.00
2023-07-23T06:51:19.662Z,100.00
2023-07-23T06:54:21.653Z,100.00
2023-07-23T06:57:29.880Z,100.00
2023-07-23T07:00:31.647Z,100.00
2023-07-23T07:03:33.447Z,100.00
2023-07-23T07:06:35.348Z,100.00
2023-07-23T07:09:36.952Z,100.00
2023-07-23T07:12:39.930Z,100.00
2023-07-23T07:15:44.489Z,100.00
2023-07-23T07:18:46.063Z,100.00
2023-07-23T07:21:47.923Z,100.00
2023-07-23T07:24:49.617Z,100.00
2023-07-23T07:27:56.073Z,100.00
2023-07-23T07:31:01.805Z,100.00
2023-07-23T07:34:03.493Z,100.00
2023-07-23T07:37:05.615Z,100.00
2023-07-23T07:40:08.488Z,100.00
2023-07-23T07:43:14.295Z,100.00
2023-07-23T07:46:20.333Z,100.00
2023-07-23T07:49:22.154Z,100.00
2023-07-23T07:52:24.024Z,100.00
2023-07-23T07:55:25.589Z,100.00
2023-07-23T07:58:32.758Z,100.00
2023-07-23T08:01:34.837Z,100.00
2023-07-23T08:04:40.766Z,99.84
2023-07-23T08:07:42.768Z,99.68
2023-07-23T08:10:45.946Z,100.00
2023-07-23T08:13:52.735Z,99.73
2023-07-23T08:16:58.833Z,98.01
2023-07-23T08:20:00.865Z,98.17
2023-07-23T08:23:03.499Z,98.02
2023-07-23T08:26:06.584Z,95.44
2023-07-23T08:29:10.208Z,93.04
2023-07-23T08:32:14.928Z,91.07
2023-07-23T08:35:17.207Z,90.25
2023-07-23T08:38:19.443Z,89.70
2023-07-23T08:41:28.615Z,88.56
2023-07-23T08:45:02.237Z,87.06
2023-07-23T08:48:14.953Z,87.26
2023-07-23T08:51:16.565Z,87.14
2023-07-23T08:54:18.626Z,84.46
2023-07-23T08:57:22.404Z,84.73
2023-07-23T09:00:25.989Z,83.61
2023-07-23T09:03:29.226Z,83.03
2023-07-23T09:06:31.832Z,81.03
2023-07-23T09:09:33.607Z,79.22
2023-07-23T09:12:41.410Z,79.08
2023-07-23T09:16:01.350Z,77.94
2023-07-23T09:19:03.235Z,76.47
2023-07-23T09:22:06.312Z,76.60
2023-07-23T09:25:08.867Z,77.18
2023-07-23T09:28:11.449Z,76.40
2023-07-23T09:31:23.030Z,75.32
2023-07-23T09:34:26.130Z,75.65
2023-07-23T09:37:27.922Z,73.96
2023-07-23T09:40:33.974Z,74.16
2023-07-23T09:43:35.890Z,72.88
2023-07-23T09:46:40.074Z,74.00
2023-07-23T09:49:43.279Z,74.00
2023-07-23T09:52:44.853Z,73.95
2023-07-23T09:55:46.909Z,74.15
2023-07-23T09:58:49.646Z,74.71
2023-07-23T10:01:52.651Z,75.26
2023-07-23T10:04:55.798Z,75.33
2023-07-23T10:07:58.481Z,75.33
2023-07-23T10:11:00.096Z,75.49
2023-07-23T10:14:01.833Z,75.76
2023-07-23T10:17:07.419Z,75.97
2023-07-23T10:20:12.273Z,75.73
2023-07-23T10:23:15.784Z,76.26
2023-07-23T10:26:22.843Z,76.23
2023-07-23T10:29:24.450Z,76.37
2023-07-23T10:32:27.497Z,77.80
2023-07-23T10:36:04.648Z,79.39
2023-07-23T10:39:17.844Z,82.14
2023-07-23T10:42:40.956Z,85.47
2023-07-23T10:45:45.935Z,87.10
2023-07-23T10:48:50.201Z,87.83
2023-07-23T10:51:51.919Z,90.45
2023-07-23T10:54:54.896Z,93.56
2023-07-23T10:57:57.177Z,97.83
2023-07-23T11:00:59.961Z,100.00
2023-07-23T11:04:08.223Z,100.00
2023-07-23T11:07:10.042Z,100.00
2023-07-23T11:10:22.216Z,100.00
2023-07-23T11:13:25.830Z,100.00
2023-07-23T11:16:27.690Z,100.00
2023-07-23T11:19:31.943Z,99.90
2023-07-23T11:22:33.533Z,100.00
2023-07-23T11:25:35.198Z,100.00
2023-07-23T11:28:37.012Z,100.00
2023-07-23T11:31:39.368Z,100.00
2023-07-23T11:34:42.356Z,100.00
2023-07-23T11:37:47.647Z,100.00
2023-07-23T11:40:51.351Z,99.18
2023-07-23T11:43:52.954Z,98.85
2023-07-23T11:47:01.734Z,99.27
2023-07-23T11:50:09.915Z,97.30
2023-07-23T11:53:31.618Z,98.01
2023-07-23T11:56:43.622Z,96.65
2023-07-23T11:59:45.942Z,95.89
2023-07-23T12:02:48.567Z,93.27
2023-07-23T12:06:08.241Z,91.20
2023-07-23T12:09:11.948Z,89.10
2023-07-23T12:12:14.373Z,88.61
2023-07-23T12:15:17.245Z,86.63
2023-07-23T12:18:23.441Z,85.98
2023-07-23T12:21:29.932Z,81.74
2023-07-23T12:24:42.676Z,81.26
2023-07-23T12:27:46.545Z,81.59
2023-07-23T12:30:48.216Z,82.56
2023-07-23T12:33:49.843Z,84.24
2023-07-23T12:36:52.795Z,83.58
2023-07-23T12:39:55.577Z,83.45
2023-07-23T12:42:57.190Z,84.61
2023-07-23T12:46:01.159Z,84.61
2023-07-23T12:49:03.394Z,85.19
2023-07-23T12:52:11.167Z,86.16
2023-07-23T12:55:13.239Z,88.13
2023-07-23T12:58:15.210Z,88.96
2023-07-23T13:01:16.849Z,87.20
2023-07-23T13:04:18.845Z,87.86
2023-07-23T13:07:22.872Z,90.23
2023-07-23T13:10:24.814Z,93.01
2023-07-23T13:13:26.710Z,95.16
2023-07-23T13:16:28.528Z,96.91
2023-07-23T13:19:32.131Z,97.05
2023-07-23T13:22:35.245Z,96.97
2023-07-23T13:25:37.006Z,99.13
2023-07-23T13:28:38.725Z,100.00
2023-07-23T13:31:42.728Z,100.00
2023-07-23T13:34:44.691Z,100.00
2023-07-23T13:37:47.927Z,100.00
2023-07-23T13:40:49.706Z,100.00
2023-07-23T13:43:51.856Z,100.00
2023-07-23T13:46:53.462Z,100.00
2023-07-23T13:49:57.600Z,100.00
2023-07-23T13:53:01.192Z,100.00
2023-07-23T13:56:02.963Z,100.00
2023-07-23T13:59:06.915Z,100.00
2023-07-23T14:02:08.789Z,100.00
2023-07-23T14:05:13.363Z,100.00
2023-07-23T14:08:18.509Z,100.00
2023-07-23T14:11:20.244Z,100.00
2023-07-23T14:14:21.787Z,100.00
2023-07-23T14:17:23.556Z,100.00
2023-07-23T14:20:25.174Z,100.00
2023-07-23T14:23:28.136Z,100.00
2023-07-23T14:26:31.752Z,100.00
2023-07-23T14:29:33.470Z,100.00
2023-07-23T14:32:35.497Z,100.00
2023-07-23T14:35:37.090Z,100.00
2023-07-23T14:38:41.147Z,100.00
2023-07-23T14:41:42.718Z,100.00
2023-07-23T14:44:44.278Z,100.00
2023-07-23T14:47:45.913Z,100.00
2023-07-23T14:50:47.651Z,100.00
2023-07-23T14:53:50.803Z,100.00
2023-07-23T14:56:53.668Z,100.00
2023-07-23T14:59:56.396Z,100.00
2023-07-23T15:02:58.073Z,100.00
2023-07-23T15:05:59.727Z,100.00
2023-07-23T15:09:03.268Z,100.00
2023-07-23T15:12:05.798Z,100.00
2023-07-23T15:15:10.357Z,100.00
2023-07-23T15:18:12.828Z,100.00
2023-07-23T15:21:18.755Z,100.00
2023-07-23T15:24:23.410Z,100.00
2023-07-23T15:27:26.738Z,100.00
2023-07-23T15:30:28.392Z,100.00
2023-07-23T15:33:30.626Z,100.00
2023-07-23T15:36:32.329Z,100.00
2023-07-23T15:39:35.761Z,100.00
2023-07-23T15:42:37.523Z,100.00
2023-07-23T15:45:39.151Z,100.00
2023-07-23T15:48:41.029Z,100.00
2023-07-23T15:51:42.663Z,100.00
2023-07-23T15:54:45.576Z,100.00
2023-07-23T15:57:47.114Z,100.00
2023-07-23T16:00:48.741Z,100.00
2023-07-23T16:03:50.328Z,100.00
2023-07-23T16:06:54.773Z,100.00
2023-07-23T16:09:57.862Z,100.00
2023-07-23T16:12:59.478Z,100.00
2023-07-23T16:16:01.193Z,100.00
2023-07-23T16:19:03.367Z,100.00
2023-07-23T16:22:05.639Z,100.00
2023-07-23T16:25:09.119Z,100.00
2023-07-23T16:28:10.897Z,100.00
2023-07-23T16:31:15.091Z,100.00
2023-07-23T16:34:17.220Z,100.00
2023-07-23T16:37:26.104Z,100.00
2023-07-23T16:40:29.508Z,100.00
2023-07-23T16:43:35.698Z,100.00
2023-07-23T16:46:37.365Z,100.00
2023-07-23T16:49:38.913Z,100.00
2023-07-23T16:52:42.566Z,100.00
2023-07-23T16:55:45.447Z,100.00
2023-07-23T16:58:48.971Z,100.00
2023-07-23T17:01:50.629Z,100.00
2023-07-23T17:04:52.303Z,100.00
2023-07-23T17:07:53.878Z,100.00
2023-07-23T17:11:13.130Z,100.00
2023-07-23T17:14:14.971Z,100.00
2023-07-23T17:17:16.862Z,100.00
2023-07-23T17:20:18.636Z,100.00
2023-07-23T17:23:20.266Z,100.00
2023-07-23T17:26:23.297Z,100.00
2023-07-23T17:29:25.548Z,100.00
2023-07-23T17:32:29.199Z,100.00
2023-07-23T17:35:30.804Z,100.00
2023-07-23T17:38:32.546Z,100.00
2023-07-23T17:41:35.579Z,100.00
2023-07-23T17:44:37.350Z,100.00
2023-07-23T17:47:39.056Z,100.00
2023-07-23T17:50:44.389Z,100.00
2023-07-23T17:53:52.942Z,100.00
2023-07-23T17:56:55.870Z,100.00
2023-07-23T17:59:57.428Z,100.00
2023-07-23T18:02:59.515Z,100.00
2023-07-23T18:06:01.200Z,100.00
2023-07-23T18:09:03.091Z,100.00
2023-07-23T18:12:06.836Z,100.00
2023-07-23T18:15:09.320Z,100.00
2023-07-23T18:18:10.921Z,100.00
2023-07-23T18:21:12.497Z,100.00
2023-07-23T18:24:14.357Z,100.00
2023-07-23T18:27:19.798Z,100.00
2023-07-23T18:30:21.511Z,100.00
2023-07-23T18:33:23.046Z,100.00
2023-07-23T18:36:24.962Z,100.00
2023-07-23T18:39:26.546Z,100.00
2023-07-23T18:42:29.449Z,100.00
2023-07-23T18:45:33.390Z,100.00
2023-07-23T18:48:34.988Z,100.00
2023-07-23T18:51:36.635Z,100.00
2023-07-23T18:54:38.389Z,100.00
2023-07-23T18:57:41.335Z,100.00
2023-07-23T19:00:42.887Z,100.00
2023-07-23T19:03:44.589Z,100.00
2023-07-23T19:06:46.141Z,100.00
2023-07-23T19:09:47.960Z,100.00
2023-07-23T19:12:50.918Z,100.00
2023-07-23T19:15:52.633Z,100.00
2023-07-23T19:18:54.357Z,100.00
2023-07-23T19:21:56.161Z,100.00
2023-07-23T19:24:57.822Z,100.00
2023-07-23T19:28:00.852Z,100.00
2023-07-23T19:31:44.425Z,100.00
2023-07-23T19:34:46.532Z,100.00
2023-07-23T19:37:48.220Z,100.00
2023-07-23T19:40:49.999Z,100.00
2023-07-23T19:43:53.383Z,100.00
2023-07-23T19:46:55.137Z,100.00
2023-07-23T19:49:57.013Z,100.00
2023-07-23T19:52:58.614Z,100.00
2023-07-23T19:56:00.561Z,100.00
2023-07-23T19:59:03.521Z,100.00
2023-07-23T20:02:05.319Z,100.00
2023-07-23T20:05:07.542Z,100.00
2023-07-23T20:08:09.196Z,100.00
2023-07-23T20:11:11.484Z,100.00
2023-07-23T20:14:16.327Z,100.00
2023-07-23T20:17:17.980Z,100.00
2023-07-23T20:20:20.174Z,100.00
2023-07-23T20:23:22.309Z,100.00
2023-07-23T20:26:23.873Z,100.00
2023-07-23T20:29:27.393Z,100.00
2023-07-23T20:32:31.484Z,100.00
2023-07-23T20:35:33.969Z,100.00
2023-07-23T20:38:36.081Z,100.00
2023-07-23T20:41:37.962Z,100.00
2023-07-23T20:44:47.078Z,100.00
2023-07-23T20:47:48.713Z,100.00
2023-07-23T20:50:50.263Z,100.00
2023-07-23T20:53:51.834Z,100.00
2023-07-23T20:56:53.381Z,100.00
2023-07-23T20:59:59.777Z,100.00
2023-07-23T21:03:01.361Z,100.00
2023-07-23T21:06:03.019Z,100.00
2023-07-23T21:09:04.826Z,100.00
2023-07-23T21:12:07.747Z,100.00
2023-07-23T21:15:11.289Z,100.00
2023-07-23T21:18:12.811Z,100.00
2023-07-23T21:21:14.372Z,100.00
2023-07-23T21:24:16.016Z,100.00
2023-07-23T21:27:17.580Z,100.00
2023-07-23T21:30:20.724Z,100.00
2023-07-23T21:33:22.398Z,100.00
2023-07-23T21:36:24.118Z,100.00
2023-07-23T21:39:28.112Z,100.00
2023-07-23T21:42:29.801Z,100.00
2023-07-23T21:45:32.662Z,100.00
2023-07-23T21:48:34.194Z,100.00
2023-07-23T21:51:37.702Z,100.00
2023-07-23T21:54:39.427Z,100.00
2023-07-23T21:57:42.878Z,100.00
2023-07-23T22:00:45.977Z,100.00
2023-07-23T22:03:47.637Z,100.00
2023-07-23T22:06:49.252Z,100.00
2023-07-23T22:09:50.999Z,100.00
2023-07-23T22:12:55.768Z,100.00
2023-07-23T22:15:58.676Z,100.00
2023-07-23T22:19:00.256Z,100.00
2023-07-23T22:22:01.834Z,100.00
2023-07-23T22:25:03.578Z,100.00
2023-07-23T22:28:11.368Z,100.00
2023-07-23T22:31:14.605Z,100.00
2023-07-23T22:34:16.960Z,100.00
2023-07-23T22:37:18.505Z,100.00
2023-07-23T22:40:20.512Z,100.00
2023-07-23T22:43:22.207Z,100.00
2023-07-23T22:46:25.941Z,100.00
2023-07-23T22:49:27.889Z,100.00
2023-07-23T22:52:29.505Z,100.00
2023-07-23T22:55:33.972Z,100.00
2023-07-23T22:58:35.559Z,100.00
2023-07-23T23:01:38.674Z,100.00
2023-07-23T23:04:40.435Z,100.00
2023-07-23T23:07:42.025Z,100.00
2023-07-23T23:10:43.733Z,100.00
2023-07-23T23:13:45.261Z,100.00
2023-07-23T23:16:48.152Z,100.00
2023-07-23T23:19:49.682Z,100.00
2023-07-23T23:22:51.309Z,100.00
2023-07-23T23:25:52.837Z,100.00
2023-07-23T23:28:57.375Z,100.00
2023-07-23T23:32:00.235Z,100.00
2023-07-23T23:35:01.855Z,100.00
2023-07-23T23:38:03.424Z,100.00
2023-07-23T23:41:04.959Z,100.00
2023-07-23T23:44:09.373Z,100.00
2023-07-23T23:47:12.335Z,100.00
2023-07-23T23:50:14.038Z,100.00
2023-07-23T23:53:15.620Z,100.00
2023-07-23T23:56:17.159Z,100.00
2023-07-23T23:59:22.244Z,100.00
